ESSP/NRK METAR and TAF weather

Enter ICAO airport designator
Station Type Date Time Source
ESSP METAR 2020/03/29 20:20 UTC NOAA

ESSP 292020Z AUTO 25008KT 9999 BKN130/// 01/M09 Q1023


Station Type Date Time Source
ESSP Decoded METAR 2020/03/29 20:20 UTC NOAA

Norrkoping, Sweden (ESSP) 58-35N 016-09E 0M
Mar 29, 2020 - 04:20 PM EDT / 2020.03.29 2020 UTC
Wind: from the WSW (250 degrees) at 9 MPH (8 KT):0
Visibility: greater than 7 mile(s):0
Sky conditions: mostly cloudy
Temperature: 33 F (1 C)
Windchill: 24 F (-4 C):1
Dew Point: 15 F (-9 C)
Relative Humidity: 47%
Pressure (altimeter): 30.21 in. Hg (1023 hPa)
ob: ESSP 292020Z AUTO 25008KT 9999 BKN130/// 01/M09 Q1023
cycle: 20

Station Type Date Time Source
ESSP TAF 2018/01/01 02:31 UTC NOAA

TAF ESSP 010130Z 0102/0206 16002KT 9999 BKN004 PROB40 0102/0106 4000 BR SCT004

Example: see airport list